Time;durP1;ratioP1;P1;durP2;ratioP2;P2;SDS_P1;SDS_P2;PMS_P1;PMS_P2;Temp;Humidity;BMP_temperature;BMP_pressure;BME280_temperature;BME280_humidity;BME280_pressure;Samples;Min_cycle;Max_cycle;Signal;HPM_P1;HPM_P2
2023/09/13 00:02:09;;;;;;;;;;;24.70;1.00;;;;;;4954895;28;20016;-62
2023/09/13 00:04:35;;;;;;;;;;;24.70;1.00;;;;;;4955329;28;20021;-62
2023/09/13 00:07:02;;;;;;;;;;;24.70;1.00;;;;;;4954782;28;19926;-63
2023/09/13 00:09:29;;;;;;;;;;;24.70;1.00;;;;;;4954998;29;19934;-62
2023/09/13 00:11:56;;;;;;;;;;;24.70;1.00;;;;;;4955031;29;20026;-63
2023/09/13 00:14:23;;;;;;;;;;;24.70;1.00;;;;;;4954825;29;20350;-63
2023/09/13 00:16:52;;;;;;;;;;;24.70;1.00;;;;;;4954515;28;19930;-62
2023/09/13 00:19:19;;;;;;;;;;;24.70;1.00;;;;;;4955084;29;20005;-62
2023/09/13 00:21:48;;;;;;;;;;;24.70;1.00;;;;;;4954739;29;19926;-63
2023/09/13 00:24:15;;;;;;;;;;;24.70;1.00;;;;;;4954683;28;20423;-62
2023/09/13 00:26:41;;;;;;;;;;;24.70;1.00;;;;;;4954426;28;20030;-60
2023/09/13 00:29:08;;;;;;;;;;;24.70;1.00;;;;;;4954578;29;19933;-61
2023/09/13 00:31:35;;;;;;;;;;;24.70;1.00;;;;;;4953278;29;20025;-63
2023/09/13 00:34:02;;;;;;;;;;;24.70;1.00;;;;;;4954599;29;19927;-63
2023/09/13 00:36:28;;;;;;;;;;;24.70;1.00;;;;;;4949700;29;19926;-62
2023/09/13 00:38:55;;;;;;;;;;;24.70;1.00;;;;;;4953303;29;19926;-62
2023/09/13 00:41:22;;;;;;;;;;;24.70;1.00;;;;;;4953059;29;20374;-62
2023/09/13 00:43:49;;;;;;;;;;;24.70;1.00;;;;;;4953148;29;19943;-62
2023/09/13 00:46:15;;;;;;;;;;;24.70;1.00;;;;;;4952778;28;19962;-62
2023/09/13 00:48:43;;;;;;;;;;;24.70;1.00;;;;;;4937825;29;19927;-62
2023/09/13 00:51:09;;;;;;;;;;;24.70;1.00;;;;;;4953137;29;19927;-63
2023/09/13 00:53:36;;;;;;;;;;;24.60;1.00;;;;;;4953116;29;20014;-62
2023/09/13 00:56:03;;;;;;;;;;;24.60;1.00;;;;;;4953119;28;19953;-61
2023/09/13 00:58:31;;;;;;;;;;;24.60;1.00;;;;;;4952788;29;19973;-63
2023/09/13 01:00:57;;;;;;;;;;;24.60;1.00;;;;;;4952982;29;19965;-64
2023/09/13 01:03:25;;;;;;;;;;;24.60;1.00;;;;;;4952910;29;19985;-63
2023/09/13 01:05:54;;;;;;;;;;;24.60;1.00;;;;;;4953213;28;20318;-63
2023/09/13 01:08:21;;;;;;;;;;;24.60;1.00;;;;;;4944768;29;20021;-63
2023/09/13 01:10:48;;;;;;;;;;;24.60;1.00;;;;;;4954073;29;20023;-63
2023/09/13 01:13:15;;;;;;;;;;;24.60;1.00;;;;;;4953755;29;19965;-63
2023/09/13 01:15:51;;;;;;;;;;;24.60;1.00;;;;;;4946060;29;19931;-63
2023/09/13 01:18:23;;;;;;;;;;;24.60;1.00;;;;;;4952637;29;19926;-63
2023/09/13 01:20:56;;;;;;;;;;;24.60;1.00;;;;;;4952940;29;20298;-63
2023/09/13 01:23:49;;;;;;;;;;;24.60;1.00;;;;;;4953959;28;19933;-63
2023/09/13 01:26:34;;;;;;;;;;;24.60;1.00;;;;;;4952266;28;19954;-63
2023/09/13 01:29:02;;;;;;;;;;;24.60;1.00;;;;;;4954016;29;20322;-63
2023/09/13 01:31:29;;;;;;;;;;;24.60;1.00;;;;;;4952553;29;19987;-63
2023/09/13 01:33:56;;;;;;;;;;;24.60;1.00;;;;;;4942760;29;19930;-63
2023/09/13 01:36:24;;;;;;;;;;;24.60;1.00;;;;;;4947153;29;19934;-63
2023/09/13 01:38:51;;;;;;;;;;;24.60;1.00;;;;;;4954057;29;20025;-63
2023/09/13 01:41:24;;;;;;;;;;;24.60;1.00;;;;;;4952591;29;19957;-63
2023/09/13 01:43:54;;;;;;;;;;;24.60;1.00;;;;;;4953800;28;20002;-63
2023/09/13 01:46:27;;;;;;;;;;;24.60;1.00;;;;;;4952121;28;19934;-63
2023/09/13 01:48:58;;;;;;;;;;;24.60;1.00;;;;;;4952805;29;19926;-63
2023/09/13 01:51:26;;;;;;;;;;;24.60;1.00;;;;;;4946961;29;19926;-61
2023/09/13 01:53:54;;;;;;;;;;;24.60;1.00;;;;;;4952588;29;20330;-63
2023/09/13 01:56:21;;;;;;;;;;;24.60;1.00;;;;;;4939027;29;19927;-63
2023/09/13 01:58:49;;;;;;;;;;;24.60;1.00;;;;;;4952240;29;19934;-62
2023/09/13 02:01:16;;;;;;;;;;;24.60;1.00;;;;;;4952610;29;19933;-63
2023/09/13 02:03:44;;;;;;;;;;;24.60;1.00;;;;;;4953566;29;19926;-63
2023/09/13 02:06:14;;;;;;;;;;;24.60;1.00;;;;;;4952109;28;20302;-63
2023/09/13 02:08:41;;;;;;;;;;;24.60;1.00;;;;;;4952411;29;19934;-62
2023/09/13 02:11:09;;;;;;;;;;;24.60;1.00;;;;;;4952244;29;19949;-62
2023/09/13 02:13:35;;;;;;;;;;;24.50;1.00;;;;;;4953504;28;19926;-62
2023/09/13 02:16:02;;;;;;;;;;;24.50;1.00;;;;;;4952195;28;19926;-63
2023/09/13 02:18:29;;;;;;;;;;;24.60;1.00;;;;;;4953340;29;19926;-63
2023/09/13 02:20:56;;;;;;;;;;;24.50;1.00;;;;;;4937759;29;19933;-63
2023/09/13 02:23:23;;;;;;;;;;;24.50;1.00;;;;;;4953949;29;20251;-63
2023/09/13 02:25:49;;;;;;;;;;;24.60;1.00;;;;;;4955109;28;19996;-62
2023/09/13 02:28:17;;;;;;;;;;;24.50;1.00;;;;;;4956707;28;19953;-63
2023/09/13 02:30:45;;;;;;;;;;;24.50;1.00;;;;;;4956841;28;19931;-63
2023/09/13 02:33:12;;;;;;;;;;;24.50;1.00;;;;;;4956794;29;19927;-63
2023/09/13 02:35:39;;;;;;;;;;;24.50;1.00;;;;;;4956723;29;19926;-63
2023/09/13 02:38:06;;;;;;;;;;;24.50;1.00;;;;;;4944026;29;19964;-63
2023/09/13 02:40:33;;;;;;;;;;;24.50;1.00;;;;;;4955383;29;19926;-62
2023/09/13 02:42:59;;;;;;;;;;;24.50;1.00;;;;;;4956616;29;19934;-62
2023/09/13 02:45:27;;;;;;;;;;;24.50;1.00;;;;;;4955108;29;19969;-62
2023/09/13 02:47:54;;;;;;;;;;;24.50;1.00;;;;;;4956342;28;19927;-63
2023/09/13 02:50:21;;;;;;;;;;;24.50;1.00;;;;;;4956502;29;19927;-62
2023/09/13 02:52:47;;;;;;;;;;;24.50;1.00;;;;;;4955010;29;20364;-62
2023/09/13 02:55:14;;;;;;;;;;;24.50;1.00;;;;;;4956403;28;19933;-62
2023/09/13 02:57:41;;;;;;;;;;;24.50;1.00;;;;;;4955946;28;19966;-62
2023/09/13 03:00:09;;;;;;;;;;;24.50;1.00;;;;;;4954934;29;19950;-62
2023/09/13 03:02:40;;;;;;;;;;;24.50;1.00;;;;;;4954993;29;19927;-62
2023/09/13 03:05:07;;;;;;;;;;;24.50;1.00;;;;;;4954973;29;19956;-62
2023/09/13 03:07:34;;;;;;;;;;;24.50;1.00;;;;;;4954525;28;20013;-63
2023/09/13 03:10:01;;;;;;;;;;;24.40;1.00;;;;;;4954847;29;20302;-63
2023/09/13 03:12:28;;;;;;;;;;;24.40;1.00;;;;;;4954713;29;19927;-62
2023/09/13 03:14:56;;;;;;;;;;;24.50;1.00;;;;;;4954843;29;19985;-63
2023/09/13 03:17:23;;;;;;;;;;;24.40;1.00;;;;;;4946521;29;19958;-63
2023/09/13 03:19:50;;;;;;;;;;;24.40;1.00;;;;;;4946478;29;19933;-62
2023/09/13 03:22:18;;;;;;;;;;;24.40;1.00;;;;;;4954706;29;19926;-63
2023/09/13 03:24:45;;;;;;;;;;;24.40;1.00;;;;;;4954633;29;19936;-63
2023/09/13 03:27:12;;;;;;;;;;;24.50;1.00;;;;;;4955520;28;19932;-62
2023/09/13 03:29:39;;;;;;;;;;;24.40;1.00;;;;;;4954350;29;19977;-61
2023/09/13 03:32:06;;;;;;;;;;;24.40;1.00;;;;;;4954499;29;19972;-63
2023/09/13 03:34:35;;;;;;;;;;;24.40;1.00;;;;;;4954261;29;20595;-63
2023/09/13 03:37:02;;;;;;;;;;;24.40;1.00;;;;;;4954538;28;19926;-61
2023/09/13 03:39:29;;;;;;;;;;;24.40;1.00;;;;;;4954423;29;19926;-62
2023/09/13 03:41:56;;;;;;;;;;;24.40;1.00;;;;;;4943474;29;19931;-63
2023/09/13 03:44:26;;;;;;;;;;;24.40;1.00;;;;;;4937641;29;19930;-63
2023/09/13 03:46:53;;;;;;;;;;;24.40;1.00;;;;;;4935071;28;19926;-63
2023/09/13 03:49:20;;;;;;;;;;;24.40;1.00;;;;;;4957764;28;20006;-64
2023/09/13 03:51:47;;;;;;;;;;;24.40;1.00;;;;;;4938627;29;19926;-63
2023/09/13 03:54:15;;;;;;;;;;;24.40;1.00;;;;;;4938334;29;19930;-63
2023/09/13 03:56:42;;;;;;;;;;;24.40;1.00;;;;;;4936341;29;20021;-62
2023/09/13 03:59:08;;;;;;;;;;;24.40;1.00;;;;;;4942712;28;19982;-62
2023/09/13 04:01:35;;;;;;;;;;;24.40;1.00;;;;;;4946466;29;19931;-63
2023/09/13 04:04:02;;;;;;;;;;;24.40;1.00;;;;;;4955056;29;19927;-63
2023/09/13 04:06:30;;;;;;;;;;;24.40;1.00;;;;;;4952283;28;19926;-62
2023/09/13 04:08:57;;;;;;;;;;;24.30;1.00;;;;;;4946024;29;20053;-62
2023/09/13 04:11:26;;;;;;;;;;;24.30;1.00;;;;;;4950935;29;19933;-62
2023/09/13 04:13:52;;;;;;;;;;;24.30;1.00;;;;;;4945918;29;19974;-63
2023/09/13 04:16:19;;;;;;;;;;;24.30;1.00;;;;;;4953317;28;19978;-62
2023/09/13 04:18:46;;;;;;;;;;;24.30;1.00;;;;;;4953571;29;19926;-61
2023/09/13 04:21:15;;;;;;;;;;;24.30;1.00;;;;;;4941637;29;19936;-62
2023/09/13 04:23:41;;;;;;;;;;;24.30;1.00;;;;;;4942911;29;20334;-63
2023/09/13 04:26:09;;;;;;;;;;;24.30;1.00;;;;;;4943841;23;19973;-62
2023/09/13 04:28:36;;;;;;;;;;;24.30;1.00;;;;;;4938464;28;20064;-62
2023/09/13 04:31:03;;;;;;;;;;;24.30;1.00;;;;;;4936949;29;19937;-62
2023/09/13 04:33:46;;;;;;;;;;;24.30;1.00;;;;;;4937154;29;20375;-63
2023/09/13 04:36:14;;;;;;;;;;;24.30;1.00;;;;;;4946021;29;19934;-62
2023/09/13 04:38:41;;;;;;;;;;;24.30;1.00;;;;;;4943230;29;20011;-64
2023/09/13 04:41:13;;;;;;;;;;;24.20;1.00;;;;;;4934089;29;19934;-63
2023/09/13 04:43:40;;;;;;;;;;;24.20;1.00;;;;;;4934561;29;19934;-63
2023/09/13 04:46:07;;;;;;;;;;;24.20;1.00;;;;;;4936306;29;20020;-63
2023/09/13 04:48:34;;;;;;;;;;;24.20;1.00;;;;;;4933187;29;19926;-63
2023/09/13 04:51:03;;;;;;;;;;;24.20;1.00;;;;;;4929653;29;19973;-63
2023/09/13 04:53:33;;;;;;;;;;;24.20;1.00;;;;;;4936674;29;21460;-63
2023/09/13 04:56:01;;;;;;;;;;;24.20;1.00;;;;;;4937005;29;19930;-63
2023/09/13 04:58:30;;;;;;;;;;;24.20;1.00;;;;;;4936952;29;19933;-63
2023/09/13 05:01:00;;;;;;;;;;;24.20;1.00;;;;;;4937216;29;19974;-63
2023/09/13 05:03:27;;;;;;;;;;;24.20;1.00;;;;;;4937042;29;20306;-63
2023/09/13 05:05:57;;;;;;;;;;;24.20;1.00;;;;;;4951883;29;19927;-63
2023/09/13 05:08:23;;;;;;;;;;;24.20;1.00;;;;;;4941136;29;20078;-63
2023/09/13 05:10:52;;;;;;;;;;;24.20;1.00;;;;;;4940724;29;20223;-63
2023/09/13 05:13:19;;;;;;;;;;;24.10;1.00;;;;;;4933340;29;19934;-63
2023/09/13 05:15:45;;;;;;;;;;;24.10;1.00;;;;;;4934130;29;20355;-63
2023/09/13 05:18:12;;;;;;;;;;;24.10;1.00;;;;;;4934597;29;19927;-63
2023/09/13 05:20:39;;;;;;;;;;;24.10;1.00;;;;;;4934961;29;19928;-63
2023/09/13 05:23:06;;;;;;;;;;;24.10;1.00;;;;;;4934574;29;19982;-64
2023/09/13 05:25:33;;;;;;;;;;;24.10;1.00;;;;;;4934969;29;19993;-64
2023/09/13 05:28:00;;;;;;;;;;;24.00;1.00;;;;;;4934419;29;19933;-64
2023/09/13 05:30:31;;;;;;;;;;;24.00;1.00;;;;;;4934973;29;19982;-64
2023/09/13 05:32:58;;;;;;;;;;;24.00;1.00;;;;;;4934785;29;20029;-64
2023/09/13 05:35:25;;;;;;;;;;;24.00;1.00;;;;;;4934650;29;19982;-64
2023/09/13 05:37:51;;;;;;;;;;;24.00;1.00;;;;;;4934340;29;19931;-64
2023/09/13 05:40:18;;;;;;;;;;;24.00;1.00;;;;;;4935126;29;19974;-64
2023/09/13 05:42:45;;;;;;;;;;;24.00;1.00;;;;;;4943516;29;20457;-64
2023/09/13 05:45:12;;;;;;;;;;;24.00;1.00;;;;;;4953846;29;19926;-64
2023/09/13 05:47:39;;;;;;;;;;;24.00;1.00;;;;;;4953493;29;19964;-64
2023/09/13 05:50:06;;;;;;;;;;;24.00;1.00;;;;;;4946079;29;19926;-64
2023/09/13 05:52:33;;;;;;;;;;;24.00;1.00;;;;;;4953862;29;20334;-64
2023/09/13 05:55:00;;;;;;;;;;;24.00;1.00;;;;;;4953733;29;19934;-64
2023/09/13 05:57:28;;;;;;;;;;;24.00;1.00;;;;;;4953457;29;19930;-63
2023/09/13 05:59:54;;;;;;;;;;;24.00;1.00;;;;;;4954324;28;20390;-63
2023/09/13 06:02:21;;;;;;;;;;;24.00;1.00;;;;;;4957352;29;20309;-63
2023/09/13 06:04:48;;;;;;;;;;;23.90;1.00;;;;;;4957223;29;19933;-63
2023/09/13 06:07:15;;;;;;;;;;;24.00;1.00;;;;;;4952484;29;19927;-63
2023/09/13 06:09:41;;;;;;;;;;;23.90;1.00;;;;;;4938173;29;20021;-63
2023/09/13 06:12:08;;;;;;;;;;;23.90;1.00;;;;;;4938104;29;20351;-62
2023/09/13 06:14:36;;;;;;;;;;;23.90;1.00;;;;;;4938173;29;19975;-62
2023/09/13 06:17:03;;;;;;;;;;;23.90;1.00;;;;;;4937365;29;20029;-63
2023/09/13 06:19:29;;;;;;;;;;;23.90;1.00;;;;;;4938045;29;19927;-63
2023/09/13 06:21:56;;;;;;;;;;;23.90;1.00;;;;;;4937753;29;19926;-64
2023/09/13 06:24:24;;;;;;;;;;;23.90;1.00;;;;;;4937941;29;19982;-64
2023/09/13 06:26:52;;;;;;;;;;;23.80;1.00;;;;;;4937329;29;20311;-63
2023/09/13 06:29:19;;;;;;;;;;;23.90;1.00;;;;;;4938311;29;19934;-64
2023/09/13 06:31:48;;;;;;;;;;;23.80;1.00;;;;;;4937701;29;19927;-63
2023/09/13 06:34:30;;;;;;;;;;;23.80;1.00;;;;;;4937809;29;20359;-63
2023/09/13 06:36:58;;;;;;;;;;;23.90;1.00;;;;;;4937206;29;20240;-63
2023/09/13 06:39:25;;;;;;;;;;;23.80;1.00;;;;;;4937664;29;20370;-64
2023/09/13 06:41:53;;;;;;;;;;;23.80;1.00;;;;;;4937372;29;19934;-63
2023/09/13 06:44:21;;;;;;;;;;;23.80;1.00;;;;;;4937630;29;19962;-63
2023/09/13 06:47:07;;;;;;;;;;;23.80;1.00;;;;;;4937144;29;20461;-64
2023/09/13 06:49:38;;;;;;;;;;;23.80;1.00;;;;;;4937438;29;19927;-63
2023/09/13 06:52:06;;;;;;;;;;;23.80;1.00;;;;;;4948573;29;19930;-63
2023/09/13 06:54:35;;;;;;;;;;;23.80;1.00;;;;;;4956331;28;20751;-64
2023/09/13 06:57:08;;;;;;;;;;;23.80;1.00;;;;;;4956052;29;20391;-63
2023/09/13 06:59:38;;;;;;;;;;;23.80;1.00;;;;;;4956357;29;19927;-64
2023/09/13 07:02:18;;;;;;;;;;;23.80;1.00;;;;;;4956485;29;19933;-64
2023/09/13 07:04:48;;;;;;;;;;;23.80;1.00;;;;;;4940033;29;20022;-63
2023/09/13 07:07:35;;;;;;;;;;;23.80;1.00;;;;;;4936969;28;19931;-63
2023/09/13 07:10:03;;;;;;;;;;;23.80;1.00;;;;;;4937390;29;19954;-63
2023/09/13 07:12:30;;;;;;;;;;;23.80;1.00;;;;;;4936083;29;19950;-64
2023/09/13 07:14:57;;;;;;;;;;;23.80;1.00;;;;;;4936994;29;19930;-63
2023/09/13 07:17:23;;;;;;;;;;;23.80;1.00;;;;;;4937053;29;19927;-63
2023/09/13 07:19:50;;;;;;;;;;;23.80;1.00;;;;;;4936933;29;20030;-63
2023/09/13 07:22:17;;;;;;;;;;;23.80;1.00;;;;;;4936686;29;19931;-63
2023/09/13 07:24:44;;;;;;;;;;;23.80;1.00;;;;;;4937064;29;20386;-63
2023/09/13 07:27:11;;;;;;;;;;;23.80;1.00;;;;;;4939223;29;19927;-64
2023/09/13 07:29:37;;;;;;;;;;;23.80;1.00;;;;;;4955895;29;19936;-63
2023/09/13 07:32:04;;;;;;;;;;;23.80;1.00;;;;;;4955634;29;19973;-64
2023/09/13 07:34:31;;;;;;;;;;;23.70;1.00;;;;;;4950262;29;19933;-63
2023/09/13 07:36:58;;;;;;;;;;;23.70;1.00;;;;;;4936104;29;19927;-64
2023/09/13 07:39:25;;;;;;;;;;;23.70;1.00;;;;;;4936628;29;19962;-63
2023/09/13 07:41:52;;;;;;;;;;;23.70;1.00;;;;;;4936636;29;20310;-64
2023/09/13 07:44:19;;;;;;;;;;;23.80;1.00;;;;;;4936506;29;19927;-64
2023/09/13 07:46:46;;;;;;;;;;;23.80;1.00;;;;;;4935894;29;19934;-63
2023/09/13 07:49:13;;;;;;;;;;;23.80;1.00;;;;;;4936410;29;19926;-63
2023/09/13 07:51:40;;;;;;;;;;;23.80;1.00;;;;;;4936336;29;19927;-64
2023/09/13 07:54:07;;;;;;;;;;;23.80;1.00;;;;;;4936213;29;19926;-64
2023/09/13 07:56:37;;;;;;;;;;;23.80;1.00;;;;;;4935868;29;19926;-64
2023/09/13 07:59:04;;;;;;;;;;;23.80;1.00;;;;;;4936087;29;19927;-64
2023/09/13 08:01:31;;;;;;;;;;;23.80;1.00;;;;;;4936166;29;19927;-63
2023/09/13 08:03:58;;;;;;;;;;;23.80;1.00;;;;;;4936178;29;20371;-63
2023/09/13 08:06:24;;;;;;;;;;;23.80;1.00;;;;;;4940144;29;19942;-63
2023/09/13 08:08:52;;;;;;;;;;;23.80;1.00;;;;;;4955301;29;19977;-64
2023/09/13 08:11:19;;;;;;;;;;;23.80;1.00;;;;;;4955212;29;19926;-64
2023/09/13 08:13:45;;;;;;;;;;;23.80;1.00;;;;;;4955294;29;19930;-64
2023/09/13 08:16:12;;;;;;;;;;;23.80;1.00;;;;;;4954695;29;19926;-64
2023/09/13 08:18:39;;;;;;;;;;;23.80;1.00;;;;;;4955356;29;20333;-64
2023/09/13 08:21:06;;;;;;;;;;;23.80;1.00;;;;;;4954917;29;20017;-63
2023/09/13 08:23:35;;;;;;;;;;;23.80;1.00;;;;;;4954716;28;19926;-64
2023/09/13 08:26:02;;;;;;;;;;;23.80;1.00;;;;;;4953340;29;20020;-64
2023/09/13 08:28:49;;;;;;;;;;;23.80;1.00;;;;;;4935720;29;19927;-64
2023/09/13 08:31:17;;;;;;;;;;;23.80;1.00;;;;;;4935693;29;19984;-64
2023/09/13 08:33:46;;;;;;;;;;;23.80;1.00;;;;;;4935634;29;19958;-64
2023/09/13 08:36:13;;;;;;;;;;;23.80;1.00;;;;;;4935240;29;19927;-63
2023/09/13 08:38:40;;;;;;;;;;;23.80;1.00;;;;;;4935645;29;19955;-63
2023/09/13 08:41:07;;;;;;;;;;;23.80;1.00;;;;;;4935530;29;19930;-64
2023/09/13 08:43:35;;;;;;;;;;;23.80;1.00;;;;;;4935608;29;20299;-64
2023/09/13 08:46:02;;;;;;;;;;;23.80;1.00;;;;;;4943933;29;19931;-64
2023/09/13 08:48:31;;;;;;;;;;;23.80;1.00;;;;;;4950015;29;19927;-63
2023/09/13 08:50:59;;;;;;;;;;;23.80;1.00;;;;;;4951537;29;19990;-64
2023/09/13 08:53:26;;;;;;;;;;;23.80;1.00;;;;;;4954539;29;20013;-64
2023/09/13 08:55:55;;;;;;;;;;;23.80;1.00;;;;;;4954308;29;19927;-63
2023/09/13 08:58:23;;;;;;;;;;;23.80;1.00;;;;;;4954295;29;19927;-63
2023/09/13 09:00:51;;;;;;;;;;;23.80;1.00;;;;;;4954342;29;19927;-64
2023/09/13 09:03:20;;;;;;;;;;;23.80;1.00;;;;;;4954366;29;19926;-64
2023/09/13 09:05:47;;;;;;;;;;;23.80;1.00;;;;;;4954001;29;19958;-63
2023/09/13 09:08:14;;;;;;;;;;;23.80;1.00;;;;;;4954121;29;19934;-64
2023/09/13 09:10:41;;;;;;;;;;;23.80;1.00;;;;;;4954330;29;19990;-64
2023/09/13 09:13:10;;;;;;;;;;;23.80;1.00;;;;;;4954269;29;20309;-64
2023/09/13 09:15:37;;;;;;;;;;;23.80;1.00;;;;;;4954309;29;20354;-64
2023/09/13 09:18:05;;;;;;;;;;;23.80;1.00;;;;;;4953961;29;19933;-64
2023/09/13 09:20:33;;;;;;;;;;;23.80;1.00;;;;;;4954321;29;19937;-64
2023/09/13 09:23:00;;;;;;;;;;;23.80;1.00;;;;;;4946146;29;19927;-64
2023/09/13 09:25:29;;;;;;;;;;;23.80;1.00;;;;;;4954114;29;19930;-64
2023/09/13 09:27:56;;;;;;;;;;;23.80;1.00;;;;;;4953762;29;19954;-64
2023/09/13 09:30:29;;;;;;;;;;;23.90;1.00;;;;;;4954106;29;20386;-64
2023/09/13 09:33:02;;;;;;;;;;;23.90;1.00;;;;;;4954027;29;19936;-64
2023/09/13 09:35:38;;;;;;;;;;;23.90;1.00;;;;;;4955851;28;19927;-64
2023/09/13 09:38:19;;;;;;;;;;;23.90;1.00;;;;;;4957598;29;19926;-64
2023/09/13 09:40:46;;;;;;;;;;;23.90;1.00;;;;;;4957917;29;20079;-64
2023/09/13 09:43:13;;;;;;;;;;;23.90;1.00;;;;;;4957842;29;20005;-64
2023/09/13 09:45:39;;;;;;;;;;;23.90;1.00;;;;;;4944668;29;20025;-64
2023/09/13 09:48:07;;;;;;;;;;;24.00;1.00;;;;;;4938202;29;19934;-65
2023/09/13 09:50:33;;;;;;;;;;;24.00;1.00;;;;;;4938652;29;20004;-64
2023/09/13 09:53:08;;;;;;;;;;;24.00;1.00;;;;;;4938636;29;20387;-64
2023/09/13 09:55:36;;;;;;;;;;;24.00;1.00;;;;;;4938489;29;19927;-64
2023/09/13 09:58:03;;;;;;;;;;;24.00;1.00;;;;;;4938104;29;19931;-64
2023/09/13 10:00:30;;;;;;;;;;;24.00;1.00;;;;;;4938527;29;19934;-64
2023/09/13 10:02:57;;;;;;;;;;;24.00;1.00;;;;;;4945573;29;20404;-64
2023/09/13 10:05:24;;;;;;;;;;;24.00;1.00;;;;;;4957445;28;19927;-64
2023/09/13 10:07:51;;;;;;;;;;;24.00;1.00;;;;;;4957108;29;19931;-65
2023/09/13 10:10:38;;;;;;;;;;;24.00;1.00;;;;;;4957245;29;20017;-64
2023/09/13 10:13:05;;;;;;;;;;;24.00;1.00;;;;;;4949050;29;19926;-64
2023/09/13 10:15:32;;;;;;;;;;;24.10;1.00;;;;;;4938188;29;19933;-65
2023/09/13 10:18:00;;;;;;;;;;;24.10;1.00;;;;;;4937769;28;19978;-64
2023/09/13 10:20:28;;;;;;;;;;;24.10;1.00;;;;;;4938009;29;20291;-64
2023/09/13 10:22:58;;;;;;;;;;;24.10;1.00;;;;;;4937895;29;19974;-64
2023/09/13 10:25:27;;;;;;;;;;;24.10;1.00;;;;;;4936729;29;19973;-64
2023/09/13 10:27:54;;;;;;;;;;;24.10;1.00;;;;;;4937437;29;19936;-64
2023/09/13 10:30:23;;;;;;;;;;;24.10;1.00;;;;;;4940180;29;20399;-64
2023/09/13 10:32:53;;;;;;;;;;;24.10;1.00;;;;;;4957177;28;19953;-64
2023/09/13 10:35:20;;;;;;;;;;;24.20;1.00;;;;;;4946886;29;19934;-64
2023/09/13 10:38:05;;;;;;;;;;;24.20;1.00;;;;;;4937337;29;19934;-64
2023/09/13 10:40:32;;;;;;;;;;;24.20;1.00;;;;;;4949370;29;19933;-64
2023/09/13 10:42:58;;;;;;;;;;;24.20;1.00;;;;;;4956793;29;19931;-64
2023/09/13 10:45:25;;;;;;;;;;;24.20;1.00;;;;;;4956677;29;19961;-64
2023/09/13 10:47:52;;;;;;;;;;;24.20;1.00;;;;;;4956192;28;20409;-65
2023/09/13 10:50:21;;;;;;;;;;;24.20;1.00;;;;;;4956842;29;20263;-64
2023/09/13 10:52:48;;;;;;;;;;;24.20;1.00;;;;;;4951121;29;19933;-64
2023/09/13 10:55:15;;;;;;;;;;;24.20;1.00;;;;;;4937480;29;19927;-64
2023/09/13 10:57:43;;;;;;;;;;;24.20;1.00;;;;;;4937158;29;20306;-64
2023/09/13 11:00:10;;;;;;;;;;;24.20;1.00;;;;;;4936066;29;20346;-64
2023/09/13 11:02:37;;;;;;;;;;;24.20;1.00;;;;;;4937242;29;19926;-64
2023/09/13 11:05:05;;;;;;;;;;;24.20;1.00;;;;;;4937698;29;19934;-62
2023/09/13 11:07:32;;;;;;;;;;;24.20;1.00;;;;;;4936717;29;20468;-64
2023/09/13 11:10:05;;;;;;;;;;;24.20;1.00;;;;;;4943988;29;19930;-63
2023/09/13 11:12:37;;;;;;;;;;;24.20;1.00;;;;;;4955986;28;19927;-63
2023/09/13 11:15:14;;;;;;;;;;;24.20;1.00;;;;;;4956780;29;19937;-63
2023/09/13 11:17:41;;;;;;;;;;;24.20;1.00;;;;;;4957317;29;19933;-63
2023/09/13 11:20:24;;;;;;;;;;;24.20;1.00;;;;;;4961600;29;19926;-63
2023/09/13 11:23:01;;;;;;;;;;;24.30;1.00;;;;;;4960710;29;19930;-63
2023/09/13 11:25:54;;;;;;;;;;;24.30;1.00;;;;;;4959454;29;19990;-63
2023/09/13 11:28:31;;;;;;;;;;;24.30;1.00;;;;;;4938532;29;20410;-62
2023/09/13 11:30:59;;;;;;;;;;;24.30;1.00;;;;;;4955823;29;19937;-63
2023/09/13 11:33:27;;;;;;;;;;;24.30;1.00;;;;;;4955838;29;19926;-63
2023/09/13 11:35:58;;;;;;;;;;;24.30;1.00;;;;;;4941678;29;19970;-63
2023/09/13 11:38:25;;;;;;;;;;;24.30;1.00;;;;;;4936419;29;19990;-62
2023/09/13 11:40:58;;;;;;;;;;;24.30;1.00;;;;;;4942154;29;20020;-63
2023/09/13 11:43:29;;;;;;;;;;;24.30;1.00;;;;;;4955541;29;19974;-63
2023/09/13 11:46:00;;;;;;;;;;;24.30;1.00;;;;;;4948666;29;19958;-63
2023/09/13 11:48:29;;;;;;;;;;;24.30;1.00;;;;;;4936261;29;19950;-63
2023/09/13 11:51:07;;;;;;;;;;;24.30;1.00;;;;;;4942408;29;20298;-63
2023/09/13 11:53:48;;;;;;;;;;;24.30;1.00;;;;;;4949031;29;20394;-63
2023/09/13 11:56:35;;;;;;;;;;;24.30;1.00;;;;;;4955064;29;19926;-64
2023/09/13 11:59:12;;;;;;;;;;;24.30;1.00;;;;;;4954847;28;19933;-64
2023/09/13 12:01:45;;;;;;;;;;;24.30;1.00;;;;;;4947787;29;20263;-63
2023/09/13 12:04:15;;;;;;;;;;;24.30;1.00;;;;;;4955291;29;20314;-63
2023/09/13 12:06:46;;;;;;;;;;;24.30;1.00;;;;;;4955005;29;20017;-64
2023/09/13 12:09:19;;;;;;;;;;;24.30;1.00;;;;;;4955789;29;20298;-63
2023/09/13 12:11:53;;;;;;;;;;;24.30;1.00;;;;;;4955097;29;19977;-63
2023/09/13 12:14:23;;;;;;;;;;;24.30;1.00;;;;;;4953832;29;19933;-63
2023/09/13 12:17:10;;;;;;;;;;;24.30;1.00;;;;;;4935565;29;19927;-63
2023/09/13 12:19:37;;;;;;;;;;;24.30;1.00;;;;;;4936211;29;19927;-63
2023/09/13 12:22:04;;;;;;;;;;;24.30;1.00;;;;;;4935909;29;19927;-63
2023/09/13 12:24:30;;;;;;;;;;;24.30;1.00;;;;;;4935851;29;19949;-63
2023/09/13 12:26:57;;;;;;;;;;;24.30;1.00;;;;;;4935416;29;20355;-63
2023/09/13 12:29:24;;;;;;;;;;;24.30;1.00;;;;;;4935634;29;19958;-64
2023/09/13 12:31:55;;;;;;;;;;;24.30;1.00;;;;;;4935613;29;19937;-64
2023/09/13 12:34:22;;;;;;;;;;;24.30;1.00;;;;;;4935672;29;20387;-64
2023/09/13 12:36:49;;;;;;;;;;;24.30;1.00;;;;;;4935321;29;19938;-64
2023/09/13 12:39:16;;;;;;;;;;;24.30;1.00;;;;;;4935550;29;19927;-64
2023/09/13 12:41:43;;;;;;;;;;;24.30;1.00;;;;;;4935840;29;19927;-64
2023/09/13 12:44:11;;;;;;;;;;;24.30;1.00;;;;;;4935482;29;20405;-64
2023/09/13 12:46:40;;;;;;;;;;;24.30;1.00;;;;;;4934635;29;19926;-64
2023/09/13 12:49:10;;;;;;;;;;;24.30;1.00;;;;;;4935617;29;19927;-64
2023/09/13 12:51:37;;;;;;;;;;;24.30;1.00;;;;;;4935381;29;19926;-64
2023/09/13 12:54:05;;;;;;;;;;;24.20;1.00;;;;;;4935406;29;19927;-64
2023/09/13 12:56:33;;;;;;;;;;;24.20;1.00;;;;;;4935155;29;19974;-64
2023/09/13 12:59:00;;;;;;;;;;;24.20;1.00;;;;;;4935262;29;19934;-64
2023/09/13 13:01:31;;;;;;;;;;;24.20;1.00;;;;;;4944470;29;20275;-64
2023/09/13 13:04:03;;;;;;;;;;;24.30;1.00;;;;;;4954641;29;19926;-64
2023/09/13 13:06:37;;;;;;;;;;;24.20;1.00;;;;;;4953962;29;19926;-64
2023/09/13 13:09:05;;;;;;;;;;;24.30;1.00;;;;;;4953980;29;20397;-64
2023/09/13 13:11:41;;;;;;;;;;;24.30;1.00;;;;;;4953803;29;20334;-62
2023/09/13 13:14:14;;;;;;;;;;;24.30;1.00;;;;;;4954168;29;19927;-64
2023/09/13 13:16:43;;;;;;;;;;;24.30;1.00;;;;;;4953385;29;19926;-64
2023/09/13 13:19:13;;;;;;;;;;;24.30;1.00;;;;;;4954199;29;19926;-64
2023/09/13 13:21:50;;;;;;;;;;;24.30;1.00;;;;;;4954102;29;19952;-64
2023/09/13 13:24:35;;;;;;;;;;;24.30;1.00;;;;;;4954147;29;19927;-64
2023/09/13 13:27:02;;;;;;;;;;;24.30;1.00;;;;;;4953421;29;20300;-64
2023/09/13 13:29:29;;;;;;;;;;;24.30;1.00;;;;;;4954151;29;19930;-64
2023/09/13 13:31:56;;;;;;;;;;;24.30;1.00;;;;;;4954122;29;20350;-64
2023/09/13 13:34:23;;;;;;;;;;;24.30;1.00;;;;;;4954079;29;19926;-64
2023/09/13 13:36:49;;;;;;;;;;;24.30;1.00;;;;;;4953761;29;19926;-64
2023/09/13 13:39:16;;;;;;;;;;;24.30;1.00;;;;;;4954192;29;19927;-64
2023/09/13 13:41:44;;;;;;;;;;;24.20;1.00;;;;;;4936457;29;19926;-64
2023/09/13 13:44:12;;;;;;;;;;;24.30;1.00;;;;;;4951980;29;20047;-64
2023/09/13 13:46:39;;;;;;;;;;;24.20;1.00;;;;;;4944989;29;19970;-64
2023/09/13 13:49:06;;;;;;;;;;;24.20;1.00;;;;;;4943823;29;19926;-64
2023/09/13 13:51:33;;;;;;;;;;;24.20;1.00;;;;;;4944868;29;19927;-64
2023/09/13 13:54:02;;;;;;;;;;;24.20;1.00;;;;;;4950716;29;19931;-63
2023/09/13 13:56:30;;;;;;;;;;;24.20;1.00;;;;;;4944104;29;19931;-64
2023/09/13 13:58:57;;;;;;;;;;;24.20;1.00;;;;;;4946239;29;19973;-64
2023/09/13 14:01:23;;;;;;;;;;;24.20;1.00;;;;;;4953817;29;20009;-64
2023/09/13 14:03:50;;;;;;;;;;;24.20;1.00;;;;;;4935191;29;19931;-64
2023/09/13 14:06:17;;;;;;;;;;;24.20;1.00;;;;;;4934792;29;19927;-64
2023/09/13 14:08:44;;;;;;;;;;;24.20;1.00;;;;;;4935193;29;19935;-64
2023/09/13 14:11:11;;;;;;;;;;;24.20;1.00;;;;;;4935129;29;20009;-64
2023/09/13 14:13:37;;;;;;;;;;;24.20;1.00;;;;;;4935293;29;20101;-64
2023/09/13 14:16:04;;;;;;;;;;;24.20;1.00;;;;;;4935193;29;19927;-64
2023/09/13 14:18:32;;;;;;;;;;;24.20;1.00;;;;;;4951830;29;19934;-64
2023/09/13 14:20:59;;;;;;;;;;;24.20;1.00;;;;;;4950809;28;19934;-64
2023/09/13 14:23:25;;;;;;;;;;;24.20;1.00;;;;;;4949082;29;20029;-64
2023/09/13 14:25:52;;;;;;;;;;;24.20;1.00;;;;;;4941965;29;19931;-64
2023/09/13 14:28:19;;;;;;;;;;;24.20;1.00;;;;;;4942188;29;19930;-64
2023/09/13 14:30:47;;;;;;;;;;;24.20;1.00;;;;;;4946892;29;19935;-64
2023/09/13 14:33:16;;;;;;;;;;;24.20;1.00;;;;;;4951073;29;19926;-65
2023/09/13 14:35:43;;;;;;;;;;;24.20;1.00;;;;;;4946369;29;19931;-65
2023/09/13 14:38:10;;;;;;;;;;;24.10;1.00;;;;;;4940688;29;19986;-65
2023/09/13 14:40:37;;;;;;;;;;;24.20;1.00;;;;;;4936320;29;20029;-64